createdAt,value
2023-05-01T00:00:37.856Z,1.58
2023-05-01T00:03:04.770Z,1.15
2023-05-01T00:05:31.782Z,3.97
2023-05-01T00:07:58.645Z,1.40
2023-05-01T00:10:25.606Z,1.25
2023-05-01T00:12:52.416Z,1.10
2023-05-01T00:15:19.176Z,1.52
2023-05-01T00:17:46.163Z,3.83
2023-05-01T00:20:13.918Z,1.83
2023-05-01T00:22:40.864Z,1.38
2023-05-01T00:25:08.096Z,3.33
2023-05-01T00:27:34.959Z,4.15
2023-05-01T00:30:01.911Z,1.40
2023-05-01T00:32:28.742Z,2.70
2023-05-01T00:34:57.799Z,1.85
2023-05-01T00:37:24.781Z,1.67
2023-05-01T00:39:51.670Z,2.42
2023-05-01T00:42:18.457Z,2.13
2023-05-01T00:44:45.384Z,2.17
2023-05-01T00:47:12.414Z,2.70
2023-05-01T00:49:44.069Z,2.10
2023-05-01T00:52:11.678Z,1.63
2023-05-01T00:54:38.882Z,1.73
2023-05-01T00:57:08.255Z,2.28
2023-05-01T00:59:35.140Z,3.38
2023-05-01T01:02:02.289Z,2.53
2023-05-01T01:04:31.534Z,3.60
2023-05-01T01:07:11.518Z,3.80
2023-05-01T01:10:14.045Z,2.38
2023-05-01T01:12:43.872Z,2.78
2023-05-01T01:15:13.424Z,3.22
2023-05-01T01:18:16.592Z,2.67
2023-05-01T01:20:52.974Z,2.90
2023-05-01T01:23:31.448Z,3.13
2023-05-01T01:26:35.105Z,2.92
2023-05-01T01:29:49.301Z,7.57
2023-05-01T01:33:17.474Z,2.88
2023-05-01T01:35:53.975Z,3.67
2023-05-01T01:38:29.249Z,3.38
2023-05-01T01:41:01.834Z,4.43
2023-05-01T01:43:36.577Z,4.38
2023-05-01T01:46:06.834Z,4.75
2023-05-01T01:48:36.846Z,4.55
2023-05-01T01:51:08.764Z,3.72
2023-05-01T01:56:07.160Z,1.92
2023-05-01T01:58:36.896Z,2.75
2023-05-01T02:01:05.454Z,2.50
2023-05-01T02:03:33.701Z,3.03
2023-05-01T02:06:01.605Z,2.60
2023-05-01T02:08:31.757Z,3.72
2023-05-01T02:11:02.077Z,3.00
2023-05-01T02:13:31.194Z,3.25
2023-05-01T02:16:02.799Z,3.53
2023-05-01T02:18:30.970Z,5.43
2023-05-01T02:20:59.266Z,4.55
2023-05-01T02:23:28.659Z,2.53
2023-05-01T02:25:57.386Z,3.03
2023-05-01T02:28:27.156Z,3.40
2023-05-01T02:30:54.095Z,2.95
2023-05-01T02:33:20.977Z,2.22
2023-05-01T02:35:47.977Z,4.40
2023-05-01T02:38:16.268Z,5.47
2023-05-01T02:40:50.338Z,2.80
2023-05-01T02:43:20.116Z,5.03
2023-05-01T02:45:48.088Z,3.45
2023-05-01T02:48:18.707Z,3.58
2023-05-01T02:50:47.057Z,4.20
2023-05-01T02:53:15.686Z,6.30
2023-05-01T02:55:45.553Z,2.63
2023-05-01T02:58:16.818Z,3.28
2023-05-01T03:00:44.728Z,2.90
2023-05-01T03:03:12.102Z,3.20
2023-05-01T03:05:39.663Z,2.72
2023-05-01T03:08:06.903Z,2.50
2023-05-01T03:10:34.109Z,2.47
2023-05-01T03:13:01.168Z,2.58
2023-05-01T03:15:28.064Z,2.00
2023-05-01T03:17:54.908Z,1.63
2023-05-01T03:20:21.886Z,3.20
2023-05-01T03:22:48.628Z,2.25
2023-05-01T03:25:15.557Z,2.00
2023-05-01T03:27:42.498Z,2.00
2023-05-01T03:30:10.174Z,2.40
2023-05-01T03:32:37.159Z,1.92
2023-05-01T03:35:04.233Z,2.78
2023-05-01T03:37:31.099Z,3.67
2023-05-01T03:39:58.090Z,3.10
2023-05-01T03:42:25.036Z,3.10
2023-05-01T03:44:52.612Z,4.07
2023-05-01T03:47:19.632Z,2.08
2023-05-01T03:49:46.672Z,2.80
2023-05-01T03:52:14.558Z,2.35
2023-05-01T03:54:41.422Z,2.35
2023-05-01T03:57:09.214Z,3.17
2023-05-01T03:59:37.338Z,2.17
2023-05-01T04:02:05.143Z,2.53
2023-05-01T04:04:32.205Z,7.07
2023-05-01T04:06:59.140Z,2.92
2023-05-01T04:09:26.129Z,3.88
2023-05-01T04:11:52.895Z,3.63
2023-05-01T04:14:19.615Z,3.58
2023-05-01T04:16:46.664Z,6.07
2023-05-01T04:19:16.605Z,4.32
2023-05-01T04:21:43.475Z,2.50
2023-05-01T04:24:10.281Z,4.47
2023-05-01T04:26:37.105Z,4.25
2023-05-01T04:29:03.802Z,2.90
2023-05-01T04:31:30.835Z,4.07
2023-05-01T04:33:58.582Z,4.50
2023-05-01T04:36:25.388Z,3.97
2023-05-01T04:38:52.487Z,5.95
2023-05-01T04:41:19.519Z,4.00
2023-05-01T04:43:46.340Z,3.28
2023-05-01T04:46:13.207Z,3.13
2023-05-01T04:48:40.096Z,4.97
2023-05-01T04:51:06.861Z,2.95
2023-05-01T04:53:33.600Z,3.30
2023-05-01T04:56:00.396Z,5.68
2023-05-01T04:58:27.119Z,4.55
2023-05-01T05:00:53.918Z,5.47
2023-05-01T05:03:20.802Z,3.65
2023-05-01T05:05:47.699Z,3.90
2023-05-01T05:08:14.412Z,4.95
2023-05-01T05:10:41.288Z,3.45
2023-05-01T05:13:09.885Z,3.15
2023-05-01T05:15:36.727Z,5.03
2023-05-01T05:18:03.896Z,4.22
2023-05-01T05:20:31.374Z,4.50
2023-05-01T05:22:58.253Z,3.50
2023-05-01T05:25:25.084Z,3.35
2023-05-01T05:27:51.966Z,4.07
2023-05-01T05:30:18.822Z,4.20
2023-05-01T05:32:47.653Z,6.05
2023-05-01T05:35:14.561Z,5.18
2023-05-01T05:37:41.867Z,6.55
2023-05-01T05:40:10.384Z,4.43
2023-05-01T05:42:37.477Z,4.82
2023-05-01T05:45:04.979Z,4.32
2023-05-01T05:47:31.761Z,3.40
2023-05-01T05:49:58.780Z,5.53
2023-05-01T05:52:25.690Z,5.38
2023-05-01T05:54:52.538Z,4.60
2023-05-01T05:57:19.290Z,4.95
2023-05-01T05:59:46.124Z,3.97
2023-05-01T06:02:12.910Z,8.02
2023-05-01T06:04:39.692Z,5.38
2023-05-01T06:07:06.501Z,3.65
2023-05-01T06:09:33.460Z,5.15
2023-05-01T06:12:00.212Z,5.00
2023-05-01T06:14:27.142Z,5.53
2023-05-01T06:16:54.115Z,5.32
2023-05-01T06:19:20.925Z,5.07
2023-05-01T06:21:47.659Z,3.67
2023-05-01T06:24:16.020Z,5.32
2023-05-01T06:26:42.987Z,4.30
2023-05-01T06:29:09.694Z,4.47
2023-05-01T06:31:36.622Z,4.53
2023-05-01T06:34:03.473Z,4.00
2023-05-01T06:36:31.393Z,7.90
2023-05-01T06:38:58.227Z,4.30
2023-05-01T06:41:25.780Z,5.43
2023-05-01T06:43:52.669Z,3.63
2023-05-01T06:46:19.490Z,4.40
2023-05-01T06:48:46.346Z,4.40
2023-05-01T06:51:15.998Z,3.65
2023-05-01T06:53:42.721Z,5.20
2023-05-01T06:56:09.640Z,5.25
2023-05-01T06:58:36.482Z,4.60
2023-05-01T07:01:03.780Z,5.80
2023-05-01T07:03:30.823Z,3.97
2023-05-01T07:05:57.671Z,5.50
2023-05-01T07:08:24.527Z,4.03
2023-05-01T07:10:52.005Z,4.40
2023-05-01T07:13:19.528Z,4.72
2023-05-01T07:15:46.770Z,5.40
2023-05-01T07:18:13.935Z,4.22
2023-05-01T07:20:40.849Z,5.28
2023-05-01T07:23:07.879Z,4.43
2023-05-01T07:25:41.359Z,5.57
2023-05-01T07:28:08.285Z,4.07
2023-05-01T07:30:36.456Z,5.03
2023-05-01T07:33:05.527Z,6.00
2023-05-01T07:35:32.997Z,8.77
2023-05-01T07:37:59.745Z,4.65
2023-05-01T07:40:26.829Z,4.95
2023-05-01T07:42:54.707Z,4.97
2023-05-01T07:45:22.745Z,4.70
2023-05-01T07:47:50.208Z,5.70
2023-05-01T07:50:17.146Z,5.65
2023-05-01T07:52:44.054Z,4.47
2023-05-01T07:55:10.976Z,6.32
2023-05-01T07:57:38.746Z,5.80
2023-05-01T08:00:06.511Z,5.43
2023-05-01T08:02:33.580Z,4.65
2023-05-01T08:05:01.062Z,7.20
2023-05-01T08:07:27.972Z,4.75
2023-05-01T08:09:56.366Z,9.63
2023-05-01T08:12:24.497Z,6.82
2023-05-01T08:14:51.209Z,3.83
2023-05-01T08:17:18.035Z,5.97
2023-05-01T08:19:45.601Z,7.75
2023-05-01T08:22:12.491Z,4.88
2023-05-01T08:24:39.496Z,6.10
2023-05-01T08:27:08.506Z,6.53
2023-05-01T08:29:36.033Z,5.30
2023-05-01T08:32:02.941Z,5.72
2023-05-01T08:34:29.872Z,11.10
2023-05-01T08:36:57.205Z,5.68
2023-05-01T08:39:23.972Z,5.68
2023-05-01T08:41:50.958Z,4.28
2023-05-01T08:44:19.635Z,4.40
2023-05-01T08:47:01.860Z,4.30
2023-05-01T08:49:32.733Z,5.18
2023-05-01T08:52:02.299Z,4.93
2023-05-01T08:54:31.340Z,6.38
2023-05-01T08:57:06.027Z,5.80
2023-05-01T08:59:36.662Z,5.38
2023-05-01T09:02:05.762Z,6.65
2023-05-01T09:05:03.678Z,4.18
2023-05-01T09:07:30.515Z,5.07
2023-05-01T09:09:58.173Z,4.88
2023-05-01T09:12:26.282Z,27.02
2023-05-01T09:14:54.777Z,5.55
2023-05-01T09:17:23.184Z,13.65
2023-05-01T09:19:53.445Z,13.40
2023-05-01T09:22:21.248Z,8.77
2023-05-01T09:24:48.350Z,6.00
2023-05-01T09:27:15.596Z,8.00
2023-05-01T09:29:47.786Z,6.55
2023-05-01T09:32:28.287Z,6.93
2023-05-01T09:35:08.756Z,4.82
2023-05-01T09:37:35.602Z,4.95
2023-05-01T09:40:07.608Z,5.45
2023-05-01T09:42:37.419Z,4.95
2023-05-01T09:45:15.109Z,5.10
2023-05-01T09:47:46.473Z,3.63
2023-05-01T09:50:33.184Z,6.28
2023-05-01T09:53:05.607Z,6.28
2023-05-01T09:55:33.410Z,4.88
2023-05-01T09:58:00.620Z,9.77
2023-05-01T10:00:27.606Z,5.60
2023-05-01T10:02:54.745Z,6.20
2023-05-01T10:05:22.951Z,7.30
2023-05-01T10:08:01.060Z,8.30
2023-05-01T10:10:28.298Z,5.72
2023-05-01T10:12:55.477Z,5.38
2023-05-01T10:15:26.163Z,5.90
2023-05-01T10:17:54.757Z,7.53
2023-05-01T10:20:22.144Z,5.05
2023-05-01T10:22:49.854Z,4.10
2023-05-01T10:25:18.205Z,5.55
2023-05-01T10:27:45.269Z,5.80
2023-05-01T10:30:12.799Z,6.55
2023-05-01T10:32:41.816Z,4.97
2023-05-01T10:35:21.632Z,5.35
2023-05-01T10:38:02.047Z,3.58
2023-05-01T10:40:41.020Z,5.53
2023-05-01T10:43:28.966Z,5.20
2023-05-01T10:46:26.923Z,4.65
2023-05-01T10:48:54.600Z,5.40
2023-05-01T10:51:25.659Z,5.18
2023-05-01T10:54:12.610Z,5.10
2023-05-01T10:56:39.321Z,4.63
2023-05-01T10:59:06.739Z,8.82
2023-05-01T11:01:34.457Z,6.45
2023-05-01T11:04:27.452Z,6.07
2023-05-01T11:07:07.919Z,5.20
2023-05-01T11:09:42.513Z,4.38
2023-05-01T11:12:14.170Z,4.43
2023-05-01T11:15:03.090Z,5.15
2023-05-01T11:17:42.316Z,6.57
2023-05-01T11:20:10.955Z,3.40
2023-05-01T11:22:40.819Z,3.92
2023-05-01T11:25:22.701Z,3.75
2023-05-01T11:27:54.720Z,4.35
2023-05-01T11:30:22.229Z,3.33
2023-05-01T11:32:51.656Z,3.70
2023-05-01T11:35:26.594Z,3.35
2023-05-01T11:37:55.968Z,8.32
2023-05-01T11:40:25.935Z,4.65
2023-05-01T11:43:04.579Z,5.95
2023-05-01T11:45:32.619Z,5.45
2023-05-01T11:48:02.879Z,2.90
2023-05-01T11:50:36.301Z,2.95
2023-05-01T11:53:04.941Z,6.32
2023-05-01T11:55:33.022Z,4.15
2023-05-01T11:58:00.247Z,5.43
2023-05-01T12:00:37.342Z,6.65
2023-05-01T12:03:06.723Z,5.63
2023-05-01T12:05:37.977Z,5.80
2023-05-01T12:08:21.962Z,3.63
2023-05-01T12:10:57.814Z,4.90
2023-05-01T12:13:26.182Z,4.40
2023-05-01T12:15:54.930Z,4.88
2023-05-01T12:18:22.319Z,3.00
2023-05-01T12:20:52.296Z,2.78
2023-05-01T12:23:29.666Z,3.88
2023-05-01T12:25:57.070Z,3.88
2023-05-01T12:28:24.738Z,2.90
2023-05-01T12:30:51.779Z,3.47
2023-05-01T12:33:20.713Z,3.80
2023-05-01T12:35:49.518Z,3.08
2023-05-01T12:38:18.464Z,2.92
2023-05-01T12:40:59.591Z,3.70
2023-05-01T12:43:44.637Z,3.72
2023-05-01T12:46:14.842Z,4.05
2023-05-01T12:48:41.729Z,6.32
2023-05-01T12:51:08.898Z,3.70
2023-05-01T12:53:44.286Z,3.15
2023-05-01T12:56:23.566Z,3.45
2023-05-01T12:58:51.899Z,2.85
2023-05-01T13:01:26.479Z,3.80
2023-05-01T13:03:56.619Z,2.55
2023-05-01T13:06:35.438Z,3.00
2023-05-01T13:09:10.311Z,2.88
2023-05-01T13:11:38.389Z,4.22
2023-05-01T13:14:09.411Z,2.22
2023-05-01T13:16:46.497Z,3.47
2023-05-01T13:19:14.270Z,4.13
2023-05-01T13:21:51.854Z,2.92
2023-05-01T13:24:19.441Z,3.00
2023-05-01T13:26:46.321Z,2.38
2023-05-01T13:29:16.655Z,2.97
2023-05-01T13:31:44.804Z,2.30
2023-05-01T13:34:20.963Z,3.30
2023-05-01T13:36:47.751Z,4.20
2023-05-01T13:39:21.347Z,4.60
2023-05-01T13:41:49.568Z,2.80
2023-05-01T13:44:21.103Z,3.65
2023-05-01T13:46:48.731Z,2.65
2023-05-01T13:49:20.768Z,2.40
2023-05-01T13:51:48.892Z,3.97
2023-05-01T13:54:16.768Z,1.77
2023-05-01T13:56:43.781Z,3.33
2023-05-01T13:59:10.868Z,1.70
2023-05-01T14:01:46.098Z,2.03
2023-05-01T14:04:18.507Z,4.13
2023-05-01T14:06:48.553Z,3.78
2023-05-01T14:09:19.294Z,1.75
2023-05-01T14:11:47.948Z,2.58
2023-05-01T14:14:18.538Z,3.55
2023-05-01T14:16:52.515Z,2.83
2023-05-01T14:19:19.425Z,2.47
2023-05-01T14:21:46.981Z,2.70
2023-05-01T14:24:18.200Z,7.28
2023-05-01T14:26:47.785Z,3.95
2023-05-01T14:29:22.756Z,2.25
2023-05-01T14:31:49.931Z,4.63
2023-05-01T14:34:18.711Z,2.20
2023-05-01T14:36:45.807Z,4.95
2023-05-01T14:39:13.363Z,1.95
2023-05-01T14:41:42.623Z,2.05
2023-05-01T14:44:15.966Z,2.13
2023-05-01T14:46:51.514Z,2.60
2023-05-01T14:49:24.424Z,3.47
2023-05-01T14:51:52.433Z,2.25
2023-05-01T14:54:20.480Z,2.40
2023-05-01T14:56:48.598Z,2.25
2023-05-01T14:59:16.305Z,13.77
2023-05-01T15:01:44.156Z,10.50
2023-05-01T15:04:12.762Z,3.63
2023-05-01T15:06:39.796Z,4.50
2023-05-01T15:09:06.795Z,3.08
2023-05-01T15:11:33.615Z,2.50
2023-05-01T15:14:00.505Z,2.10
2023-05-01T15:16:27.900Z,4.13
2023-05-01T15:18:55.228Z,4.47
2023-05-01T15:21:22.045Z,4.85
2023-05-01T15:23:48.867Z,3.50
2023-05-01T15:26:16.433Z,5.20
2023-05-01T15:28:43.314Z,3.83
2023-05-01T15:31:10.221Z,8.73
2023-05-01T15:33:37.073Z,5.57
2023-05-01T15:36:04.181Z,3.10
2023-05-01T15:38:30.971Z,5.65
2023-05-01T15:40:57.929Z,3.00
2023-05-01T15:43:24.748Z,1.80
2023-05-01T15:45:51.985Z,2.55
2023-05-01T15:48:19.093Z,2.95
2023-05-01T15:50:48.660Z,2.63
2023-05-01T15:53:17.241Z,3.28
2023-05-01T15:55:44.135Z,3.78
2023-05-01T15:58:11.133Z,2.55
2023-05-01T16:00:39.672Z,2.63
2023-05-01T16:03:08.578Z,2.83
2023-05-01T16:05:37.490Z,2.42
2023-05-01T16:08:06.490Z,3.30
2023-05-01T16:10:37.214Z,4.20
2023-05-01T16:13:08.150Z,3.97
2023-05-01T16:15:36.385Z,3.60
2023-05-01T16:18:06.303Z,4.35
2023-05-01T16:20:39.307Z,3.00
2023-05-01T16:23:06.329Z,3.90
2023-05-01T16:25:33.198Z,2.60
2023-05-01T16:28:00.099Z,2.78
2023-05-01T16:30:28.218Z,2.53
2023-05-01T16:32:55.273Z,3.33
2023-05-01T16:35:27.390Z,3.65
2023-05-01T16:37:59.358Z,3.25
2023-05-01T16:40:26.244Z,2.83
2023-05-01T16:42:54.316Z,4.68
2023-05-01T16:45:21.578Z,3.35
2023-05-01T16:47:48.531Z,2.90
2023-05-01T16:50:16.972Z,3.88
2023-05-01T16:52:43.994Z,2.47
2023-05-01T16:55:11.267Z,4.18
2023-05-01T16:57:38.242Z,3.72
2023-05-01T17:00:09.495Z,3.47
2023-05-01T17:02:38.600Z,3.83
2023-05-01T17:05:06.398Z,5.20
2023-05-01T17:07:33.392Z,2.75
2023-05-01T17:10:07.750Z,3.42
2023-05-01T17:12:34.644Z,4.10
2023-05-01T17:15:01.650Z,3.67
2023-05-01T17:17:28.516Z,4.53
2023-05-01T17:19:55.284Z,4.30
2023-05-01T17:22:23.679Z,3.90
2023-05-01T17:24:51.294Z,8.10
2023-05-01T17:27:18.127Z,5.65
2023-05-01T17:29:45.079Z,5.90
2023-05-01T17:34:41.906Z,4.68
2023-05-01T17:37:09.262Z,4.85
2023-05-01T17:39:36.252Z,4.60
2023-05-01T17:42:04.340Z,4.15
2023-05-01T17:44:31.723Z,5.75
2023-05-01T17:46:58.630Z,4.72
2023-05-01T17:49:25.720Z,6.38
2023-05-01T17:51:52.604Z,6.00
2023-05-01T17:54:19.514Z,5.43
2023-05-01T17:56:46.306Z,5.95
2023-05-01T17:59:13.685Z,8.40
2023-05-01T18:01:42.136Z,8.52
2023-05-01T18:04:09.628Z,6.53
2023-05-01T18:06:36.749Z,5.40
2023-05-01T18:09:03.957Z,7.38
2023-05-01T18:11:30.772Z,4.47
2023-05-01T18:13:57.560Z,5.40
2023-05-01T18:16:24.811Z,7.22
2023-05-01T18:18:53.050Z,5.53
2023-05-01T18:21:19.795Z,4.90
2023-05-01T18:23:48.558Z,5.68
2023-05-01T18:26:16.654Z,5.30
2023-05-01T18:28:43.917Z,6.93
2023-05-01T18:31:10.809Z,5.47
2023-05-01T18:33:37.937Z,5.38
2023-05-01T18:36:05.024Z,5.38
2023-05-01T18:38:31.923Z,7.10
2023-05-01T18:41:03.049Z,9.30
2023-05-01T18:43:31.221Z,10.53
2023-05-01T18:45:58.838Z,9.85
2023-05-01T18:48:26.191Z,8.57
2023-05-01T18:51:07.134Z,6.00
2023-05-01T18:53:35.411Z,9.45
2023-05-01T18:56:02.384Z,6.13
2023-05-01T18:58:29.341Z,7.70
2023-05-01T19:00:58.678Z,9.85
2023-05-01T19:03:25.669Z,7.18
2023-05-01T19:05:52.783Z,6.80
2023-05-01T19:08:22.198Z,5.50
2023-05-01T19:10:49.082Z,7.18
2023-05-01T19:13:16.693Z,6.88
2023-05-01T19:15:43.689Z,6.72
2023-05-01T19:18:10.801Z,7.13
2023-05-01T19:20:37.750Z,6.80
2023-05-01T19:23:04.635Z,8.45
2023-05-01T19:25:32.488Z,6.95
2023-05-01T19:28:02.048Z,8.90
2023-05-01T19:30:30.031Z,6.93
2023-05-01T19:33:00.204Z,7.53
2023-05-01T19:35:28.243Z,8.75
2023-05-01T19:37:56.746Z,6.85
2023-05-01T19:40:24.220Z,6.75
2023-05-01T19:42:51.505Z,8.38
2023-05-01T19:45:18.481Z,10.15
2023-05-01T19:47:47.517Z,6.35
2023-05-01T19:50:19.191Z,8.38
2023-05-01T19:52:46.292Z,8.82
2023-05-01T19:55:13.602Z,7.25
2023-05-01T19:57:40.584Z,9.68
2023-05-01T20:00:12.377Z,8.45
2023-05-01T20:02:39.442Z,8.30
2023-05-01T20:05:06.493Z,7.85
2023-05-01T20:07:34.440Z,8.25
2023-05-01T20:10:01.532Z,11.00
2023-05-01T20:15:12.025Z,13.32
2023-05-01T20:17:38.854Z,9.55
2023-05-01T20:20:08.276Z,13.18
2023-05-01T20:22:36.130Z,9.45
2023-05-01T20:25:03.096Z,12.18
2023-05-01T20:27:29.910Z,9.65
2023-05-01T20:29:56.738Z,8.77
2023-05-01T20:32:23.735Z,8.32
2023-05-01T20:34:52.859Z,11.13
2023-05-01T20:37:19.712Z,10.05
2023-05-01T20:39:46.619Z,8.02
2023-05-01T20:42:13.375Z,10.38
2023-05-01T20:44:40.127Z,10.38
2023-05-01T20:47:06.926Z,7.63
2023-05-01T20:49:34.149Z,9.95
2023-05-01T20:52:00.923Z,7.05
2023-05-01T20:54:32.299Z,7.65
2023-05-01T20:57:00.032Z,5.47
2023-05-01T20:59:26.993Z,6.78
2023-05-01T21:01:54.026Z,6.00
2023-05-01T21:04:20.970Z,6.03
2023-05-01T21:06:47.843Z,7.38
2023-05-01T21:09:15.148Z,8.55
2023-05-01T21:11:42.034Z,7.85
2023-05-01T21:14:08.995Z,8.40
2023-05-01T21:16:36.765Z,7.88
2023-05-01T21:19:03.853Z,7.22
2023-05-01T21:21:30.991Z,7.32
2023-05-01T21:23:57.797Z,7.43
2023-05-01T21:26:24.669Z,8.63
2023-05-01T21:28:51.576Z,7.38
2023-05-01T21:31:18.547Z,6.75
2023-05-01T21:33:45.938Z,7.20
2023-05-01T21:36:18.454Z,6.63
2023-05-01T21:38:46.133Z,8.25
2023-05-01T21:41:15.601Z,8.35
2023-05-01T21:43:42.995Z,7.80
2023-05-01T21:46:18.043Z,7.68
2023-05-01T21:48:50.556Z,7.40
2023-05-01T21:51:19.919Z,8.65
2023-05-01T21:53:46.708Z,10.18
2023-05-01T21:56:14.528Z,7.03
2023-05-01T21:58:41.534Z,8.63
2023-05-01T22:01:09.521Z,6.95
2023-05-01T22:03:41.628Z,7.35
2023-05-01T22:06:08.731Z,8.40
2023-05-01T22:08:35.569Z,8.20
2023-05-01T22:11:02.551Z,8.77
2023-05-01T22:13:33.316Z,9.32
2023-05-01T22:16:00.634Z,8.25
2023-05-01T22:18:29.184Z,8.85
2023-05-01T22:20:56.014Z,8.18
2023-05-01T22:23:22.778Z,8.52
2023-05-01T22:25:49.499Z,7.88
2023-05-01T22:28:17.844Z,7.78
2023-05-01T22:30:45.242Z,8.13
2023-05-01T22:33:12.132Z,7.57
2023-05-01T22:35:38.915Z,11.05
2023-05-01T22:38:05.863Z,7.63
2023-05-01T22:40:32.676Z,7.95
2023-05-01T22:43:00.266Z,8.60
2023-05-01T22:45:27.318Z,9.05
2023-05-01T22:47:54.138Z,14.88
2023-05-01T22:50:21.193Z,8.38
2023-05-01T22:52:47.982Z,5.57
2023-05-01T22:55:15.841Z,7.35
2023-05-01T22:57:42.829Z,4.95
2023-05-01T23:00:12.665Z,2.60
2023-05-01T23:02:39.447Z,2.45
2023-05-01T23:05:07.797Z,3.25
2023-05-01T23:07:34.600Z,2.38
2023-05-01T23:10:02.281Z,2.58
2023-05-01T23:12:29.233Z,3.00
2023-05-01T23:14:56.137Z,4.00
2023-05-01T23:17:23.365Z,3.45
2023-05-01T23:19:50.315Z,2.75
2023-05-01T23:22:18.047Z,2.42
2023-05-01T23:24:49.815Z,5.18
2023-05-01T23:27:18.194Z,2.17
2023-05-01T23:29:58.830Z,1.55
2023-05-01T23:32:31.229Z,1.55
2023-05-01T23:35:12.522Z,1.50
2023-05-01T23:37:39.290Z,2.05
2023-05-01T23:40:07.130Z,1.55
2023-05-01T23:42:35.442Z,1.63
2023-05-01T23:45:02.293Z,1.35
2023-05-01T23:47:29.780Z,1.15
2023-05-01T23:49:56.890Z,1.35
2023-05-01T23:52:23.751Z,1.52
2023-05-01T23:54:50.444Z,1.27
2023-05-01T23:57:17.194Z,1.60
2023-05-01T23:59:43.972Z,3.40
